Time;durP1;ratioP1;P1;durP2;ratioP2;P2;SDS_P1;SDS_P2;PMS_P1;PMS_P2;Temp;Humidity;BMP_temperature;BMP_pressure;BME280_temperature;BME280_humidity;BME280_pressure;Samples;Min_cycle;Max_cycle;Signal;HPM_P1;HPM_P2
2021/09/29 00:02:04;;;;;;;3.83;1.73;;;;;;;;;;5054622;28;20866;-72
2021/09/29 00:04:32;;;;;;;3.60;1.77;;;;;;;;;;5054359;28;20497;-71
2021/09/29 00:07:00;;;;;;;3.03;1.93;;;;;;;;;;5054366;28;20747;-72
2021/09/29 00:09:28;;;;;;;7.87;2.07;;;;;;;;;;5053903;28;20893;-72
2021/09/29 00:11:55;;;;;;;2.33;1.37;;;;;;;;;;5053697;28;20504;-72
2021/09/29 00:14:24;;;;;;;3.93;1.90;;;;;;;;;;5053518;28;20723;-72
2021/09/29 00:16:52;;;;;;;6.03;1.67;;;;;;;;;;5053758;28;20755;-72
2021/09/29 00:19:20;;;;;;;3.20;2.00;;;;;;;;;;5054403;28;20512;-71
2021/09/29 00:21:48;;;;;;;2.57;1.60;;;;;;;;;;5054365;28;20806;-71
2021/09/29 00:24:16;;;;;;;6.13;2.10;;;;;;;;;;5054679;28;20458;-71
2021/09/29 00:26:44;;;;;;;8.47;1.83;;;;;;;;;;5055298;28;20485;-73
2021/09/29 00:29:11;;;;;;;7.10;2.70;;;;;;;;;;5057435;28;20457;-72
2021/09/29 00:31:41;;;;;;;3.30;1.50;;;;;;;;;;5057653;28;20468;-72
2021/09/29 00:34:11;;;;;;;2.50;1.93;;;;;;;;;;5057671;28;20528;-72
2021/09/29 00:36:40;;;;;;;9.23;2.13;;;;;;;;;;5057745;28;20497;-72
2021/09/29 00:39:08;;;;;;;5.17;2.03;;;;;;;;;;5058006;28;20461;-72
2021/09/29 00:41:36;;;;;;;5.03;2.07;;;;;;;;;;5057840;28;20481;-73
2021/09/29 00:44:04;;;;;;;3.90;1.97;;;;;;;;;;5057878;28;20453;-72
2021/09/29 00:46:32;;;;;;;2.03;1.17;;;;;;;;;;5057209;28;20481;-72
2021/09/29 00:49:01;;;;;;;7.77;1.70;;;;;;;;;;5056685;28;20468;-72
2021/09/29 00:51:29;;;;;;;2.73;2.07;;;;;;;;;;5056994;28;20732;-72
2021/09/29 00:53:57;;;;;;;4.37;1.80;;;;;;;;;;5057167;28;20873;-72
2021/09/29 00:56:27;;;;;;;4.60;2.43;;;;;;;;;;5055503;28;20874;-72
2021/09/29 00:58:55;;;;;;;4.40;1.90;;;;;;;;;;5057191;28;21656;-72
2021/09/29 01:01:26;;;;;;;3.00;1.50;;;;;;;;;;5057804;28;20909;-72
2021/09/29 01:03:54;;;;;;;3.93;1.90;;;;;;;;;;5057184;28;20802;-72
2021/09/29 01:06:27;;;;;;;2.87;1.63;;;;;;;;;;5056635;28;20516;-72
2021/09/29 01:09:00;;;;;;;2.23;1.30;;;;;;;;;;5056831;28;20461;-72
2021/09/29 01:11:36;;;;;;;3.30;1.73;;;;;;;;;;5056718;28;20457;-72
2021/09/29 01:14:04;;;;;;;4.50;1.90;;;;;;;;;;5056862;28;20467;-72
2021/09/29 01:16:34;;;;;;;3.97;2.40;;;;;;;;;;5056446;28;20461;-72
2021/09/29 01:19:02;;;;;;;4.30;1.63;;;;;;;;;;5057091;28;20453;-72
2021/09/29 01:21:39;;;;;;;4.13;1.70;;;;;;;;;;5056308;28;20477;-72
2021/09/29 01:24:11;;;;;;;7.10;1.70;;;;;;;;;;5056282;28;20481;-71
2021/09/29 01:26:43;;;;;;;6.03;2.07;;;;;;;;;;5056329;28;20600;-72
2021/09/29 01:29:12;;;;;;;10.20;3.37;;;;;;;;;;5057582;28;20843;-72
2021/09/29 01:31:40;;;;;;;4.73;2.10;;;;;;;;;;5057161;28;20453;-72
2021/09/29 01:34:10;;;;;;;4.90;1.53;;;;;;;;;;5057857;28;20465;-72
2021/09/29 01:36:38;;;;;;;2.47;1.93;;;;;;;;;;5056886;28;20493;-72
2021/09/29 01:39:10;;;;;;;5.10;1.73;;;;;;;;;;5055231;28;20465;-72
2021/09/29 01:41:40;;;;;;;2.00;1.57;;;;;;;;;;5056681;28;20452;-72
2021/09/29 01:44:10;;;;;;;3.43;1.30;;;;;;;;;;5056743;28;20460;-72
2021/09/29 01:46:39;;;;;;;2.53;1.43;;;;;;;;;;5056740;28;20731;-72
2021/09/29 01:49:08;;;;;;;4.40;1.90;;;;;;;;;;5057012;28;20519;-72
2021/09/29 01:51:37;;;;;;;5.00;2.63;;;;;;;;;;5056378;28;20461;-72
2021/09/29 01:54:05;;;;;;;5.90;1.90;;;;;;;;;;5056785;28;20457;-72
2021/09/29 01:56:33;;;;;;;8.43;2.80;;;;;;;;;;5056832;28;20476;-72
2021/09/29 01:59:03;;;;;;;4.70;1.97;;;;;;;;;;5056869;28;20461;-72
2021/09/29 02:01:35;;;;;;;3.80;2.50;;;;;;;;;;5056604;28;20493;-72
2021/09/29 02:04:02;;;;;;;7.17;1.77;;;;;;;;;;5055859;28;20851;-72
2021/09/29 02:06:30;;;;;;;2.30;1.47;;;;;;;;;;5056001;28;20451;-72
2021/09/29 02:08:58;;;;;;;3.10;1.87;;;;;;;;;;5055526;28;20829;-72
2021/09/29 02:11:26;;;;;;;5.10;1.87;;;;;;;;;;5055946;28;20521;-72
2021/09/29 02:13:53;;;;;;;3.37;1.70;;;;;;;;;;5056088;28;20457;-72
2021/09/29 02:16:21;;;;;;;3.07;1.80;;;;;;;;;;5055992;28;20453;-72
2021/09/29 02:18:51;;;;;;;4.07;1.90;;;;;;;;;;5055467;28;20522;-72
2021/09/29 02:21:18;;;;;;;4.30;1.10;;;;;;;;;;5055777;28;20469;-72
2021/09/29 02:23:46;;;;;;;4.90;1.50;;;;;;;;;;5056546;28;20728;-72
2021/09/29 02:26:14;;;;;;;7.80;1.77;;;;;;;;;;5056226;28;20548;-72
2021/09/29 02:28:41;;;;;;;2.83;1.40;;;;;;;;;;5055684;28;20588;-72
2021/09/29 02:31:09;;;;;;;3.93;1.97;;;;;;;;;;5055584;28;20485;-72
2021/09/29 02:33:37;;;;;;;6.13;1.60;;;;;;;;;;5055147;28;20544;-72
2021/09/29 02:36:06;;;;;;;4.27;1.70;;;;;;;;;;5056766;28;20453;-71
2021/09/29 02:38:34;;;;;;;2.17;1.30;;;;;;;;;;5056614;28;20504;-72
2021/09/29 02:41:02;;;;;;;7.57;1.60;;;;;;;;;;5055931;28;20605;-72
2021/09/29 02:43:29;;;;;;;3.57;1.50;;;;;;;;;;5056192;28;20481;-72
2021/09/29 02:45:58;;;;;;;3.17;2.07;;;;;;;;;;5055159;28;20541;-72
2021/09/29 02:48:26;;;;;;;4.90;1.67;;;;;;;;;;5052572;28;20763;-73
2021/09/29 02:50:54;;;;;;;3.33;2.50;;;;;;;;;;5053541;28;20476;-72
2021/09/29 02:53:28;;;;;;;3.87;2.07;;;;;;;;;;5054832;28;20722;-72
2021/09/29 02:55:56;;;;;;;6.73;1.87;;;;;;;;;;5048739;28;20454;-71
2021/09/29 02:58:24;;;;;;;8.03;1.90;;;;;;;;;;5056463;28;20492;-72
2021/09/29 03:00:52;;;;;;;7.30;2.47;;;;;;;;;;5056480;28;20812;-72
2021/09/29 03:03:20;;;;;;;3.70;2.00;;;;;;;;;;5056940;28;20463;-72
2021/09/29 03:05:48;;;;;;;5.90;2.10;;;;;;;;;;5055538;28;20462;-72
2021/09/29 03:08:16;;;;;;;7.30;2.60;;;;;;;;;;5055171;28;20568;-72
2021/09/29 03:10:46;;;;;;;3.03;1.77;;;;;;;;;;5056037;28;20533;-72
2021/09/29 03:13:14;;;;;;;2.77;1.97;;;;;;;;;;5056526;28;20873;-72
2021/09/29 03:15:42;;;;;;;4.83;2.47;;;;;;;;;;5056607;28;20473;-72
2021/09/29 03:18:10;;;;;;;10.63;2.00;;;;;;;;;;5055344;28;20501;-72
2021/09/29 03:20:38;;;;;;;6.33;1.80;;;;;;;;;;5055412;28;20468;-72
2021/09/29 03:23:07;;;;;;;6.37;2.50;;;;;;;;;;5055685;28;20464;-72
2021/09/29 03:25:40;;;;;;;4.70;3.13;;;;;;;;;;5055534;28;20457;-72
2021/09/29 03:28:10;;;;;;;4.33;2.20;;;;;;;;;;5055526;28;20577;-70
2021/09/29 03:30:38;;;;;;;3.87;2.30;;;;;;;;;;5056251;28;20480;-71
2021/09/29 03:33:07;;;;;;;3.63;2.17;;;;;;;;;;5056748;28;20464;-71
2021/09/29 03:35:35;;;;;;;3.20;1.83;;;;;;;;;;5079410;28;20451;-71
2021/09/29 03:38:05;;;;;;;7.40;2.10;;;;;;;;;;5096100;28;20459;-71
2021/09/29 03:40:37;;;;;;;3.67;2.10;;;;;;;;;;5094201;28;20451;-71
2021/09/29 03:43:05;;;;;;;4.33;2.37;;;;;;;;;;5094595;28;20518;-71
2021/09/29 03:45:34;;;;;;;9.23;1.93;;;;;;;;;;5096425;28;21077;-72
2021/09/29 03:48:02;;;;;;;6.30;1.93;;;;;;;;;;5095264;28;20592;-72
2021/09/29 03:50:33;;;;;;;10.53;2.67;;;;;;;;;;5095478;28;20453;-72
2021/09/29 03:53:01;;;;;;;11.60;3.17;;;;;;;;;;5096517;28;20452;-71
2021/09/29 03:55:29;;;;;;;4.00;2.50;;;;;;;;;;5094667;28;20457;-72
2021/09/29 03:57:57;;;;;;;2.90;2.00;;;;;;;;;;5094491;28;20455;-71
2021/09/29 04:00:26;;;;;;;4.40;2.53;;;;;;;;;;5094630;28;20708;-72
2021/09/29 04:02:56;;;;;;;7.10;3.10;;;;;;;;;;5096807;28;20479;-73
2021/09/29 04:05:24;;;;;;;2.77;2.00;;;;;;;;;;5099669;28;20566;-73
2021/09/29 04:07:52;;;;;;;3.40;2.40;;;;;;;;;;5099865;28;20695;-70
2021/09/29 04:10:20;;;;;;;4.13;1.90;;;;;;;;;;5099262;28;20462;-71
2021/09/29 04:12:49;;;;;;;6.70;2.37;;;;;;;;;;5098691;28;20459;-72
2021/09/29 04:15:18;;;;;;;8.40;2.53;;;;;;;;;;5098512;28;20512;-71
2021/09/29 04:17:47;;;;;;;12.87;2.83;;;;;;;;;;5099220;28;20558;-71
2021/09/29 04:20:17;;;;;;;3.73;2.37;;;;;;;;;;5098885;28;20459;-72
2021/09/29 04:22:44;;;;;;;5.00;2.30;;;;;;;;;;5092277;28;20461;-72
2021/09/29 04:25:12;;;;;;;4.23;2.70;;;;;;;;;;5077979;28;20460;-72
2021/09/29 04:27:40;;;;;;;8.17;2.50;;;;;;;;;;5078098;28;20527;-72
2021/09/29 04:30:09;;;;;;;4.67;2.20;;;;;;;;;;5077739;28;20832;-72
2021/09/29 04:32:37;;;;;;;3.70;2.03;;;;;;;;;;5074952;28;20455;-71
2021/09/29 04:35:05;;;;;;;8.33;2.30;;;;;;;;;;5076977;28;20540;-71
2021/09/29 04:37:34;;;;;;;3.27;2.43;;;;;;;;;;5077586;28;20768;-72
2021/09/29 04:40:02;;;;;;;5.77;2.93;;;;;;;;;;5076720;28;20456;-72
2021/09/29 04:42:30;;;;;;;4.70;2.27;;;;;;;;;;5076777;28;20468;-72
2021/09/29 04:44:58;;;;;;;4.60;1.90;;;;;;;;;;5076926;28;20452;-72
2021/09/29 04:47:27;;;;;;;5.03;2.20;;;;;;;;;;5077613;28;20515;-72
2021/09/29 04:49:54;;;;;;;4.70;2.80;;;;;;;;;;5077659;28;20744;-71
2021/09/29 04:52:24;;;;;;;4.00;2.30;;;;;;;;;;5076453;28;20464;-72
2021/09/29 04:54:53;;;;;;;5.60;3.10;;;;;;;;;;5076968;28;20506;-71
2021/09/29 04:57:21;;;;;;;5.70;2.50;;;;;;;;;;5075829;28;20590;-71
2021/09/29 04:59:53;;;;;;;4.27;3.20;;;;;;;;;;5077741;28;20468;-72
2021/09/29 05:02:23;;;;;;;3.30;2.40;;;;;;;;;;5077836;28;20498;-72
2021/09/29 05:04:51;;;;;;;6.37;2.93;;;;;;;;;;5078047;28;20802;-72
2021/09/29 05:07:20;;;;;;;10.07;2.60;;;;;;;;;;5077140;28;20464;-72
2021/09/29 05:09:53;;;;;;;10.00;3.43;;;;;;;;;;5081139;28;20467;-70
2021/09/29 05:12:31;;;;;;;4.40;2.23;;;;;;;;;;5079581;28;20460;-71
2021/09/29 05:15:00;;;;;;;3.80;2.47;;;;;;;;;;5074634;28;20471;-72
2021/09/29 05:17:28;;;;;;;9.63;2.33;;;;;;;;;;5075288;28;20457;-71
2021/09/29 05:19:57;;;;;;;5.03;2.60;;;;;;;;;;5075434;28;21201;-71
2021/09/29 05:22:25;;;;;;;8.47;2.80;;;;;;;;;;5075179;28;20460;-71
2021/09/29 05:24:53;;;;;;;6.20;2.83;;;;;;;;;;5073627;28;20884;-71
2021/09/29 05:27:21;;;;;;;4.60;2.77;;;;;;;;;;5072982;28;20857;-71
2021/09/29 05:29:52;;;;;;;3.90;2.80;;;;;;;;;;5072808;28;20477;-72
2021/09/29 05:32:19;;;;;;;9.13;3.23;;;;;;;;;;5072677;28;20872;-73
2021/09/29 05:34:54;;;;;;;5.67;3.53;;;;;;;;;;5073630;28;20464;-72
2021/09/29 05:37:22;;;;;;;5.60;2.43;;;;;;;;;;5074269;28;20451;-73
2021/09/29 05:39:50;;;;;;;7.27;3.30;;;;;;;;;;5073632;28;20744;-71
2021/09/29 05:42:18;;;;;;;6.50;2.70;;;;;;;;;;5070115;28;20801;-70
2021/09/29 05:44:56;;;;;;;3.83;2.03;;;;;;;;;;5072681;28;20453;-71
2021/09/29 05:47:24;;;;;;;3.00;2.60;;;;;;;;;;5074119;28;20554;-71
2021/09/29 05:49:52;;;;;;;6.50;3.80;;;;;;;;;;5076007;28;20798;-71
2021/09/29 05:52:20;;;;;;;8.90;3.43;;;;;;;;;;5060894;28;20993;-71
2021/09/29 05:54:52;;;;;;;5.07;2.80;;;;;;;;;;5055901;28;20789;-72
2021/09/29 05:57:20;;;;;;;6.20;3.30;;;;;;;;;;5052748;28;20457;-70
2021/09/29 05:59:53;;;;;;;5.13;2.90;;;;;;;;;;5053884;28;20468;-72
2021/09/29 06:02:21;;;;;;;6.07;3.30;;;;;;;;;;5054995;28;20492;-71
2021/09/29 06:04:49;;;;;;;4.70;2.87;;;;;;;;;;5054291;28;20464;-70
2021/09/29 06:07:26;;;;;;;8.47;3.50;;;;;;;;;;5076099;28;20884;-71
2021/09/29 06:09:54;;;;;;;12.00;3.30;;;;;;;;;;5072873;28;20555;-72
2021/09/29 06:12:22;;;;;;;5.73;3.80;;;;;;;;;;5074061;28;21082;-70
2021/09/29 06:14:57;;;;;;;5.43;2.73;;;;;;;;;;5074374;28;20464;-71
2021/09/29 06:17:35;;;;;;;3.47;2.63;;;;;;;;;;5074291;28;20459;-71
2021/09/29 06:20:06;;;;;;;4.60;3.50;;;;;;;;;;5084052;28;20550;-71
2021/09/29 06:22:37;;;;;;;5.37;2.77;;;;;;;;;;5074930;28;20453;-71
2021/09/29 06:25:06;;;;;;;6.20;3.10;;;;;;;;;;5052939;28;20441;-71
2021/09/29 06:27:34;;;;;;;5.00;2.60;;;;;;;;;;5053719;28;20481;-71
2021/09/29 06:30:06;;;;;;;5.47;3.03;;;;;;;;;;5056339;28;20464;-71
2021/09/29 06:32:34;;;;;;;6.00;2.60;;;;;;;;;;5055348;28;20445;-72
2021/09/29 06:35:03;;;;;;;3.93;2.80;;;;;;;;;;5054182;28;20546;-73
2021/09/29 06:37:38;;;;;;;6.50;2.87;;;;;;;;;;5054352;28;20507;-71
2021/09/29 06:40:07;;;;;;;5.20;2.60;;;;;;;;;;5056671;28;20457;-70
2021/09/29 06:42:35;;;;;;;4.40;3.37;;;;;;;;;;5054297;28;20449;-70
2021/09/29 06:45:05;;;;;;;6.03;3.30;;;;;;;;;;5053411;28;20445;-72
2021/09/29 06:47:32;;;;;;;13.13;4.30;;;;;;;;;;5053251;28;20541;-71
2021/09/29 06:50:04;;;;;;;7.60;3.83;;;;;;;;;;5054554;28;20511;-72
2021/09/29 06:52:40;;;;;;;5.13;3.53;;;;;;;;;;5053432;28;21067;-72
2021/09/29 06:55:24;;;;;;;5.60;3.53;;;;;;;;;;5054768;28;20464;-71
2021/09/29 06:57:52;;;;;;;6.40;3.87;;;;;;;;;;5055099;28;20468;-71
2021/09/29 07:00:22;;;;;;;10.73;3.90;;;;;;;;;;5052301;28;20462;-72
2021/09/29 07:02:50;;;;;;;8.27;3.83;;;;;;;;;;5070901;28;20934;-72
2021/09/29 07:08:22;;;;;;;5.77;3.20;;;;;;;;;;5064259;28;20476;-71
2021/09/29 07:10:52;;;;;;;10.00;4.80;;;;;;;;;;5075094;28;20518;-72
2021/09/29 07:13:21;;;;;;;11.43;5.10;;;;;;;;;;5074873;28;20853;-72
2021/09/29 07:15:50;;;;;;;8.53;4.77;;;;;;;;;;5075808;28;20885;-72
2021/09/29 07:18:18;;;;;;;7.73;4.60;;;;;;;;;;5075320;28;20549;-72
2021/09/29 07:20:46;;;;;;;9.27;4.80;;;;;;;;;;5073428;28;20475;-72
2021/09/29 07:23:14;;;;;;;8.80;5.30;;;;;;;;;;5069975;28;20734;-72
2021/09/29 07:25:43;;;;;;;7.37;5.70;;;;;;;;;;5074074;28;20818;-71
2021/09/29 07:28:11;;;;;;;14.33;5.80;;;;;;;;;;5061927;28;20996;-71
2021/09/29 07:30:41;;;;;;;8.90;6.27;;;;;;;;;;5054061;28;20885;-71
2021/09/29 07:33:11;;;;;;;10.47;6.53;;;;;;;;;;5067202;28;20523;-71
2021/09/29 07:35:43;;;;;;;12.70;4.80;;;;;;;;;;5055490;28;20465;-71
2021/09/29 07:38:13;;;;;;;10.03;5.57;;;;;;;;;;5073576;28;20468;-71
2021/09/29 07:40:44;;;;;;;9.87;6.03;;;;;;;;;;5058049;28;20468;-72
2021/09/29 07:43:15;;;;;;;8.70;6.90;;;;;;;;;;5057289;28;20466;-73
2021/09/29 07:45:52;;;;;;;9.40;6.70;;;;;;;;;;5073276;28;20541;-71
2021/09/29 07:48:35;;;;;;;9.60;6.63;;;;;;;;;;5073396;28;20774;-71
2021/09/29 07:51:05;;;;;;;9.70;7.30;;;;;;;;;;5071368;28;20465;-71
2021/09/29 07:53:34;;;;;;;13.30;6.10;;;;;;;;;;5074833;28;21001;-71
2021/09/29 07:56:11;;;;;;;7.30;6.00;;;;;;;;;;5075371;28;20461;-72
2021/09/29 07:58:48;;;;;;;11.43;7.60;;;;;;;;;;5075041;28;20704;-72
2021/09/29 08:04:29;;;;;;;9.93;6.77;;;;;;;;;;5072872;28;21099;-72
2021/09/29 08:13:02;;;;;;;7.47;5.27;;;;;;;;;;5062145;28;20470;-71
2021/09/29 08:15:44;;;;;;;9.00;6.07;;;;;;;;;;5055674;28;20726;-72
2021/09/29 08:18:16;;;;;;;12.03;6.97;;;;;;;;;;5049465;28;20453;-73
2021/09/29 08:21:15;;;;;;;11.33;6.60;;;;;;;;;;5072646;28;20531;-73
2021/09/29 08:23:52;;;;;;;11.30;7.67;;;;;;;;;;5074645;28;20889;-72
2021/09/29 08:32:18;;;;;;;12.70;7.47;;;;;;;;;;4966855;28;20516;-71
2021/09/29 08:37:44;;;;;;;10.57;6.70;;;;;;;;;;5018520;28;20469;-73
2021/09/29 08:40:24;;;;;;;12.70;6.80;;;;;;;;;;5073155;28;20983;-71
2021/09/29 08:43:04;;;;;;;10.80;6.50;;;;;;;;;;5073032;28;20594;-71
2021/09/29 08:45:36;;;;;;;9.70;7.47;;;;;;;;;;5056168;28;20721;-71
2021/09/29 08:48:22;;;;;;;11.13;6.67;;;;;;;;;;5062901;28;20479;-71
2021/09/29 08:54:02;;;;;;;8.77;6.40;;;;;;;;;;5065962;28;20435;-71
2021/09/29 08:57:00;;;;;;;9.10;6.00;;;;;;;;;;5057923;28;20457;-71
2021/09/29 09:16:32;;;;;;;9.93;6.27;;;;;;;;;;5055177;28;20736;-71
2021/09/29 09:19:03;;;;;;;9.40;6.93;;;;;;;;;;5061358;28;20727;-71
2021/09/29 09:21:33;;;;;;;10.23;5.97;;;;;;;;;;5065037;28;20457;-72
2021/09/29 09:24:04;;;;;;;10.07;7.50;;;;;;;;;;5056358;28;20544;-71
2021/09/29 09:26:35;;;;;;;10.27;7.10;;;;;;;;;;5056597;28;20552;-72
2021/09/29 09:31:54;;;;;;;10.27;5.97;;;;;;;;;;5055507;28;20464;-71
2021/09/29 09:34:25;;;;;;;13.50;6.63;;;;;;;;;;5075401;28;20887;-71
2021/09/29 09:36:58;;;;;;;12.17;6.70;;;;;;;;;;5075724;28;20940;-72
2021/09/29 09:39:31;;;;;;;8.60;5.37;;;;;;;;;;5075999;28;20522;-72
2021/09/29 09:42:06;;;;;;;7.60;4.73;;;;;;;;;;5074192;28;20455;-73
2021/09/29 09:44:58;;;;;;;9.17;6.13;;;;;;;;;;5067937;28;20444;-73
2021/09/29 09:47:43;;;;;;;8.87;6.23;;;;;;;;;;5073129;28;20479;-73
2021/09/29 09:50:13;;;;;;;12.30;6.57;;;;;;;;;;5072974;28;20476;-72
2021/09/29 09:52:45;;;;;;;15.67;6.90;;;;;;;;;;5074627;28;21024;-73
2021/09/29 09:55:18;;;;;;;7.20;6.27;;;;;;;;;;5069506;28;21119;-72
2021/09/29 09:57:53;;;;;;;9.53;6.53;;;;;;;;;;5058950;28;20466;-71
2021/09/29 10:00:27;;;;;;;10.07;7.03;;;;;;;;;;5056296;28;20458;-72
2021/09/29 10:03:02;;;;;;;9.70;6.10;;;;;;;;;;5056055;28;20465;-72
2021/09/29 10:05:36;;;;;;;6.90;5.33;;;;;;;;;;5056540;28;20483;-71
2021/09/29 10:08:09;;;;;;;12.53;6.90;;;;;;;;;;5057468;28;20495;-71
2021/09/29 10:10:53;;;;;;;10.37;6.03;;;;;;;;;;5075845;28;20890;-72
2021/09/29 10:27:27;;;;;;;10.97;6.03;;;;;;;;;;5074882;28;20486;-73
2021/09/29 10:30:12;;;;;;;8.33;6.33;;;;;;;;;;5072987;28;20490;-72
2021/09/29 10:44:19;;;;;;;12.63;7.30;;;;;;;;;;5070802;28;20452;-72
2021/09/29 10:46:59;;;;;;;7.50;5.40;;;;;;;;;;5066230;28;20534;-71
2021/09/29 10:49:49;;;;;;;9.53;5.10;;;;;;;;;;5063239;28;20470;-71
2021/09/29 11:06:53;;;;;;;7.67;5.50;;;;;;;;;;5073422;28;20457;-72
2021/09/29 11:09:44;;;;;;;13.93;8.97;;;;;;;;;;5067926;28;20558;-72
2021/09/29 11:29:51;;;;;;;7.33;5.97;;;;;;;;;;5051345;28;20549;-73
2021/09/29 11:32:31;;;;;;;7.10;6.30;;;;;;;;;;5052402;28;20457;-73
2021/09/29 12:08:39;;;;;;;11.93;6.40;;;;;;;;;;5075537;28;20443;-72
2021/09/29 12:11:21;;;;;;;9.50;6.40;;;;;;;;;;5071838;28;20520;-72
2021/09/29 12:13:55;;;;;;;5.17;4.50;;;;;;;;;;5052162;28;21076;-74
2021/09/29 12:16:27;;;;;;;6.40;5.13;;;;;;;;;;5054834;28;20440;-74
2021/09/29 12:18:59;;;;;;;9.97;5.00;;;;;;;;;;5074462;28;20896;-72
2021/09/29 12:21:36;;;;;;;8.30;4.77;;;;;;;;;;5073959;28;20502;-71
2021/09/29 12:24:09;;;;;;;8.57;4.43;;;;;;;;;;5077506;28;20448;-71
2021/09/29 12:26:52;;;;;;;9.37;5.10;;;;;;;;;;5076832;28;21023;-71
2021/09/29 12:29:32;;;;;;;6.60;3.70;;;;;;;;;;5062797;28;20905;-73
2021/09/29 12:32:13;;;;;;;6.23;3.73;;;;;;;;;;5060403;28;20552;-73
2021/09/29 12:35:02;;;;;;;6.63;4.07;;;;;;;;;;5069194;28;20706;-72
2021/09/29 12:37:35;;;;;;;4.57;3.37;;;;;;;;;;5065523;28;20476;-71
2021/09/29 12:40:09;;;;;;;9.20;3.20;;;;;;;;;;5056940;28;20551;-72
2021/09/29 12:42:44;;;;;;;5.37;3.60;;;;;;;;;;5093458;28;20816;-72
2021/09/29 12:45:12;;;;;;;4.20;2.67;;;;;;;;;;5095886;28;20469;-72
2021/09/29 12:47:44;;;;;;;6.20;3.40;;;;;;;;;;5079581;28;20441;-71
2021/09/29 12:50:23;;;;;;;6.63;3.30;;;;;;;;;;5057737;28;20484;-72
2021/09/29 12:52:56;;;;;;;11.73;4.17;;;;;;;;;;5076368;28;20460;-71
2021/09/29 12:55:32;;;;;;;7.67;5.37;;;;;;;;;;5076351;28;20472;-71
2021/09/29 12:58:02;;;;;;;8.80;5.27;;;;;;;;;;5075497;28;20547;-73
2021/09/29 13:00:32;;;;;;;3.90;3.30;;;;;;;;;;5074945;28;20494;-72
2021/09/29 13:03:02;;;;;;;5.27;3.90;;;;;;;;;;5067476;28;20496;-73
2021/09/29 13:05:30;;;;;;;4.50;2.53;;;;;;;;;;5055309;28;20483;-76
2021/09/29 13:07:58;;;;;;;6.53;2.87;;;;;;;;;;5054234;28;20503;-71
2021/09/29 13:10:26;;;;;;;4.20;3.60;;;;;;;;;;5069833;28;20478;-72
2021/09/29 13:13:06;;;;;;;7.03;3.33;;;;;;;;;;5066414;28;20452;-71
2021/09/29 13:18:48;;;;;;;3.30;2.57;;;;;;;;;;5072878;28;20514;-71
2021/09/29 13:21:24;;;;;;;26.53;4.40;;;;;;;;;;5073993;28;21044;-71
2021/09/29 13:23:56;;;;;;;8.70;5.17;;;;;;;;;;5073977;28;20558;-70
2021/09/29 13:37:26;;;;;;;9.17;3.70;;;;;;;;;;5058871;28;20448;-73
2021/09/29 13:39:59;;;;;;;4.53;3.43;;;;;;;;;;5055807;28;20471;-73
2021/09/29 13:42:35;;;;;;;8.87;2.27;;;;;;;;;;5067669;28;20448;-72
2021/09/29 13:45:06;;;;;;;4.23;2.60;;;;;;;;;;5066543;28;20495;-72
2021/09/29 13:47:36;;;;;;;8.67;2.93;;;;;;;;;;5055149;28;20457;-72
2021/09/29 13:50:08;;;;;;;4.00;2.90;;;;;;;;;;5060311;28;20487;-71
2021/09/29 13:52:36;;;;;;;3.43;2.33;;;;;;;;;;5074944;28;20460;-72
2021/09/29 13:55:08;;;;;;;9.10;2.77;;;;;;;;;;5067693;28;20543;-72
2021/09/29 13:57:40;;;;;;;5.43;1.90;;;;;;;;;;5069085;28;20753;-71
2021/09/29 14:00:21;;;;;;;3.20;1.90;;;;;;;;;;5074754;28;20865;-72
2021/09/29 14:14:46;;;;;;;7.23;2.70;;;;;;;;;;5032237;28;20441;-72
2021/09/29 14:29:05;;;;;;;4.33;2.63;;;;;;;;;;5068189;28;20470;-72
2021/09/29 14:31:42;;;;;;;4.67;2.40;;;;;;;;;;5074378;28;20504;-71
2021/09/29 14:34:13;;;;;;;4.43;2.30;;;;;;;;;;5072956;28;20471;-71
2021/09/29 14:36:43;;;;;;;3.43;1.57;;;;;;;;;;5072149;28;20545;-71
2021/09/29 14:39:12;;;;;;;4.50;2.20;;;;;;;;;;5073131;28;20448;-71
2021/09/29 14:41:41;;;;;;;3.00;1.83;;;;;;;;;;5059638;28;20460;-71
2021/09/29 14:44:09;;;;;;;5.20;2.23;;;;;;;;;;5058123;28;20509;-72
2021/09/29 14:46:36;;;;;;;6.63;5.13;;;;;;;;;;5071275;28;20461;-72
2021/09/29 14:49:10;;;;;;;6.20;3.63;;;;;;;;;;5071571;28;20530;-73
2021/09/29 14:51:39;;;;;;;4.00;2.83;;;;;;;;;;5072941;28;20873;-71
2021/09/29 14:54:07;;;;;;;7.33;5.27;;;;;;;;;;5074223;28;20727;-71
2021/09/29 14:56:43;;;;;;;7.27;3.47;;;;;;;;;;5063176;28;20472;-71
2021/09/29 14:59:26;;;;;;;8.13;3.73;;;;;;;;;;5062526;28;20480;-71
2021/09/29 15:01:54;;;;;;;10.93;2.23;;;;;;;;;;5072761;28;20517;-72
2021/09/29 15:04:22;;;;;;;8.63;2.87;;;;;;;;;;5072130;28;20543;-71
2021/09/29 15:06:52;;;;;;;33.07;20.80;;;;;;;;;;5060615;28;20477;-72
2021/09/29 15:09:23;;;;;;;2.80;1.90;;;;;;;;;;5053755;28;20552;-71
2021/09/29 15:12:01;;;;;;;4.60;1.80;;;;;;;;;;5063378;28;20488;-72
2021/09/29 15:14:43;;;;;;;3.20;1.90;;;;;;;;;;5062223;28;20453;-72
2021/09/29 15:17:27;;;;;;;2.70;1.13;;;;;;;;;;5055531;28;20989;-72
2021/09/29 15:20:04;;;;;;;1.33;0.70;;;;;;;;;;5068840;28;21025;-74
2021/09/29 15:22:53;;;;;;;3.97;1.20;;;;;;;;;;5075582;28;20954;-72
2021/09/29 15:25:36;;;;;;;2.60;1.13;;;;;;;;;;5074387;28;20445;-71
2021/09/29 15:28:38;;;;;;;1.43;0.67;;;;;;;;;;5076063;28;20795;-72
2021/09/29 15:31:38;;;;;;;4.70;1.10;;;;;;;;;;5064885;28;20488;-72
2021/09/29 15:47:57;;;;;;;3.40;1.50;;;;;;;;;;5088416;28;21013;-72
2021/09/29 15:50:29;;;;;;;2.27;1.10;;;;;;;;;;5091775;28;20901;-72
2021/09/29 15:53:06;;;;;;;3.40;1.77;;;;;;;;;;5091710;28;20507;-70
2021/09/29 15:55:43;;;;;;;3.60;1.00;;;;;;;;;;5092513;28;20524;-71
2021/09/29 15:58:21;;;;;;;2.20;1.80;;;;;;;;;;5076726;28;20468;-71
2021/09/29 16:03:48;;;;;;;3.60;2.23;;;;;;;;;;5067985;28;20431;-72
2021/09/29 16:12:12;;;;;;;2.70;1.90;;;;;;;;;;5071129;28;20561;-71
2021/09/29 16:15:08;;;;;;;2.80;1.70;;;;;;;;;;5071009;28;20456;-72
2021/09/29 16:17:55;;;;;;;2.80;1.97;;;;;;;;;;5072132;28;20461;-70
2021/09/29 16:23:31;;;;;;;5.30;1.60;;;;;;;;;;5092374;28;20444;-72
2021/09/29 16:31:41;;;;;;;3.30;1.30;;;;;;;;;;5046695;28;20573;-73
2021/09/29 16:34:21;;;;;;;3.73;1.73;;;;;;;;;;5070272;28;20638;-72
2021/09/29 16:36:52;;;;;;;4.67;2.63;;;;;;;;;;5065798;28;20464;-72
2021/09/29 16:39:20;;;;;;;3.10;2.10;;;;;;;;;;5068897;28;20444;-72
2021/09/29 16:41:48;;;;;;;6.40;2.97;;;;;;;;;;5071399;28;20461;-71
2021/09/29 16:44:16;;;;;;;3.20;2.13;;;;;;;;;;5057018;28;20498;-72
2021/09/29 16:46:48;;;;;;;2.60;2.20;;;;;;;;;;5072848;28;20872;-72
2021/09/29 16:49:26;;;;;;;4.13;3.20;;;;;;;;;;5064776;28;20469;-72
2021/09/29 16:52:00;;;;;;;2.90;1.90;;;;;;;;;;5050316;28;20591;-71
2021/09/29 16:54:30;;;;;;;6.27;2.93;;;;;;;;;;5073744;28;20542;-73
2021/09/29 16:57:06;;;;;;;3.47;2.33;;;;;;;;;;5058294;28;20461;-72
2021/09/29 16:59:46;;;;;;;4.47;2.77;;;;;;;;;;5073336;28;20456;-71
2021/09/29 17:02:19;;;;;;;4.17;1.70;;;;;;;;;;5073453;28;20757;-71
2021/09/29 17:05:04;;;;;;;4.23;2.13;;;;;;;;;;5075691;28;20772;-71
2021/09/29 17:07:34;;;;;;;1.47;1.00;;;;;;;;;;5072068;28;20474;-71
2021/09/29 17:10:02;;;;;;;2.03;1.23;;;;;;;;;;5077365;28;20459;-72
2021/09/29 17:12:41;;;;;;;4.13;2.40;;;;;;;;;;5074956;28;20500;-72
2021/09/29 17:15:13;;;;;;;4.57;2.90;;;;;;;;;;5078592;28;20526;-72
2021/09/29 17:17:44;;;;;;;4.40;3.20;;;;;;;;;;5080103;28;20464;-72
2021/09/29 17:20:13;;;;;;;3.70;2.20;;;;;;;;;;5079681;28;20801;-71
2021/09/29 17:22:43;;;;;;;2.30;1.13;;;;;;;;;;5078646;28;20472;-70
2021/09/29 17:25:13;;;;;;;2.23;1.60;;;;;;;;;;5078365;28;20460;-71
2021/09/29 17:27:49;;;;;;;3.10;1.20;;;;;;;;;;5081798;28;20463;-72
2021/09/29 17:30:24;;;;;;;1.47;1.03;;;;;;;;;;5081427;28;20572;-71
2021/09/29 17:35:50;;;;;;;6.77;3.83;;;;;;;;;;5072631;28;20451;-71
2021/09/29 17:52:54;;;;;;;2.00;1.10;;;;;;;;;;5077888;28;20510;-71
2021/09/29 17:55:26;;;;;;;3.27;1.83;;;;;;;;;;5074186;28;20798;-71
2021/09/29 17:57:54;;;;;;;2.20;1.27;;;;;;;;;;5075530;28;20453;-71
2021/09/29 18:00:22;;;;;;;1.80;1.20;;;;;;;;;;5070400;28;20547;-72
2021/09/29 18:02:55;;;;;;;1.87;1.17;;;;;;;;;;5075120;28;20445;-72
2021/09/29 18:08:22;;;;;;;1.90;1.43;;;;;;;;;;5156215;27;20866;-72
2021/09/29 18:10:50;;;;;;;2.00;1.53;;;;;;;;;;5148199;27;20457;-72
2021/09/29 18:13:17;;;;;;;1.63;1.00;;;;;;;;;;5151777;27;20441;-72
2021/09/29 18:15:45;;;;;;;1.77;1.00;;;;;;;;;;5151893;27;20457;-71
2021/09/29 18:18:13;;;;;;;2.80;1.20;;;;;;;;;;5137142;27;20445;-71
2021/09/29 18:20:40;;;;;;;5.93;1.20;;;;;;;;;;5153234;27;20547;-71
2021/09/29 18:23:09;;;;;;;2.70;1.73;;;;;;;;;;5142670;27;20465;-71
2021/09/29 18:25:40;;;;;;;2.17;0.90;;;;;;;;;;5139625;27;20548;-73
2021/09/29 18:28:09;;;;;;;1.97;1.23;;;;;;;;;;5151118;27;20534;-72
2021/09/29 18:30:41;;;;;;;1.50;1.00;;;;;;;;;;5150775;27;20540;-72
2021/09/29 18:33:15;;;;;;;1.70;1.10;;;;;;;;;;5153212;27;20449;-72
2021/09/29 18:35:44;;;;;;;1.90;0.90;;;;;;;;;;5151695;27;20448;-70
2021/09/29 18:38:13;;;;;;;1.67;1.23;;;;;;;;;;5152333;27;20441;-72
2021/09/29 18:40:43;;;;;;;2.33;1.20;;;;;;;;;;5135272;27;20508;-71
2021/09/29 18:43:14;;;;;;;1.97;1.20;;;;;;;;;;5138487;27;20454;-70
2021/09/29 18:45:42;;;;;;;3.00;1.30;;;;;;;;;;5146091;27;20903;-72
2021/09/29 18:48:09;;;;;;;1.83;1.23;;;;;;;;;;5145515;27;20485;-72
2021/09/29 18:50:41;;;;;;;3.30;2.20;;;;;;;;;;5146944;27;20437;-72
2021/09/29 18:53:08;;;;;;;6.40;3.87;;;;;;;;;;5151893;27;20744;-72